createdAt,value
2024-01-12T00:01:13.759Z,-2.84
2024-01-12T00:03:43.019Z,-2.94
2024-01-12T00:06:12.026Z,-2.98
2024-01-12T00:08:40.328Z,-2.99
2024-01-12T00:11:10.381Z,-2.89
2024-01-12T00:13:40.319Z,-2.97
2024-01-12T00:16:08.903Z,-2.95
2024-01-12T00:18:37.161Z,-3.04
2024-01-12T00:21:05.850Z,-3.07
2024-01-12T00:23:34.058Z,-3.02
2024-01-12T00:26:04.311Z,-3.08
2024-01-12T00:28:33.603Z,-3.09
2024-01-12T00:31:03.165Z,-3.14
2024-01-12T00:33:31.464Z,-3.31
2024-01-12T00:35:59.708Z,-3.28
2024-01-12T00:38:27.943Z,-3.34
2024-01-12T00:40:56.175Z,-3.24
2024-01-12T00:43:24.251Z,-3.18
2024-01-12T00:45:52.539Z,-2.99
2024-01-12T00:48:22.440Z,-2.99
2024-01-12T00:50:50.864Z,-2.92
2024-01-12T00:53:19.112Z,-2.94
2024-01-12T00:55:47.254Z,-2.99
2024-01-12T00:58:15.358Z,-3.05
2024-01-12T01:00:43.577Z,-3.10
2024-01-12T01:03:11.710Z,-3.17
2024-01-12T01:05:41.692Z,-3.24
2024-01-12T01:08:09.943Z,-3.38
2024-01-12T01:10:40.080Z,-3.30
2024-01-12T01:13:08.184Z,-3.42
2024-01-12T01:15:36.350Z,-3.56
2024-01-12T01:18:04.809Z,-3.70
2024-01-12T01:20:34.510Z,-3.86
2024-01-12T01:23:04.043Z,-3.94
2024-01-12T01:25:34.319Z,-3.90
2024-01-12T01:28:03.253Z,-3.86
2024-01-12T01:30:31.674Z,-3.86
2024-01-12T01:33:00.000Z,-3.86
2024-01-12T01:35:28.396Z,-3.80
2024-01-12T01:37:56.764Z,-3.84
2024-01-12T01:40:26.387Z,-3.85
2024-01-12T01:42:54.539Z,-3.94
2024-01-12T01:45:22.782Z,-4.01
2024-01-12T01:47:51.133Z,-4.14
2024-01-12T01:50:19.551Z,-4.30
2024-01-12T01:52:48.126Z,-4.46
2024-01-12T01:55:17.174Z,-4.40
2024-01-12T01:57:47.422Z,-4.42
2024-01-12T02:01:14.063Z,-4.40
2024-01-12T02:03:43.928Z,-4.28
2024-01-12T02:06:13.381Z,-3.94
2024-01-12T02:08:41.754Z,-4.01
2024-01-12T02:11:10.915Z,-3.93
2024-01-12T02:13:40.453Z,-3.91
2024-01-12T02:16:09.750Z,-4.07
2024-01-12T02:18:38.063Z,-3.94
2024-01-12T02:21:07.855Z,-4.06
2024-01-12T02:23:36.216Z,-3.96
2024-01-12T02:26:04.472Z,-3.86
2024-01-12T02:28:33.239Z,-3.74
2024-01-12T02:31:04.180Z,-3.65
2024-01-12T02:33:32.537Z,-3.61
2024-01-12T02:36:00.702Z,-3.64
2024-01-12T02:38:32.245Z,-3.62
2024-01-12T02:41:00.396Z,-3.62
2024-01-12T02:43:28.518Z,-3.60
2024-01-12T02:45:56.705Z,-3.65
2024-01-12T02:48:24.928Z,-3.69
2024-01-12T02:50:53.115Z,-3.71
2024-01-12T02:53:21.396Z,-3.78
2024-01-12T02:55:51.005Z,-3.73
2024-01-12T02:58:19.222Z,-3.83
2024-01-12T03:00:47.464Z,-3.89
2024-01-12T03:03:15.723Z,-3.93
2024-01-12T03:05:44.105Z,-3.99
2024-01-12T03:08:13.717Z,-4.06
2024-01-12T03:10:41.858Z,-4.07
2024-01-12T03:13:11.380Z,-4.11
2024-01-12T03:15:39.761Z,-4.09
2024-01-12T03:18:10.406Z,-4.19
2024-01-12T03:20:38.703Z,-4.13
2024-01-12T03:23:06.935Z,-4.08
2024-01-12T03:25:35.081Z,-4.09
2024-01-12T03:28:03.227Z,-3.97
2024-01-12T03:30:32.788Z,-4.06
2024-01-12T03:33:02.079Z,-4.05
2024-01-12T03:35:30.307Z,-4.01
2024-01-12T03:37:58.486Z,-4.06
2024-01-12T03:40:26.645Z,-4.09
2024-01-12T03:42:54.831Z,-4.04
2024-01-12T03:45:22.999Z,-3.97
2024-01-12T03:47:52.807Z,-4.27
2024-01-12T03:50:21.788Z,-4.38
2024-01-12T03:52:50.005Z,-4.51
2024-01-12T03:55:18.116Z,-4.58
2024-01-12T03:57:46.321Z,-4.79
2024-01-12T04:00:15.534Z,-4.90
2024-01-12T04:02:43.728Z,-4.98
2024-01-12T04:05:13.529Z,-5.07
2024-01-12T04:07:41.729Z,-4.94
2024-01-12T04:10:10.129Z,-4.87
2024-01-12T04:12:40.154Z,-4.31
2024-01-12T04:15:10.415Z,-4.37
2024-01-12T04:17:39.034Z,-4.02
2024-01-12T04:20:08.986Z,-4.10
2024-01-12T04:22:38.770Z,-4.11
2024-01-12T04:25:08.048Z,-4.27
2024-01-12T04:27:36.171Z,-4.31
2024-01-12T04:30:04.620Z,-4.47
2024-01-12T04:32:35.010Z,-4.80
2024-01-12T04:35:03.279Z,-5.04
2024-01-12T04:37:31.450Z,-5.22
2024-01-12T04:40:00.958Z,-5.21
2024-01-12T04:42:30.049Z,-5.10
2024-01-12T04:44:58.228Z,-5.19
2024-01-12T04:47:26.431Z,-5.35
2024-01-12T04:49:54.639Z,-5.34
2024-01-12T04:52:23.849Z,-5.26
2024-01-12T04:54:53.068Z,-5.29
2024-01-12T04:57:27.695Z,-5.33
2024-01-12T04:59:56.211Z,-5.48
2024-01-12T05:02:25.534Z,-5.45
2024-01-12T05:05:00.752Z,-5.34
2024-01-12T05:07:29.915Z,-5.34
2024-01-12T05:09:58.127Z,-5.17
2024-01-12T05:12:30.342Z,-5.16
2024-01-12T05:15:03.257Z,-5.15
2024-01-12T05:17:38.755Z,-5.16
2024-01-12T05:20:09.829Z,-4.95
2024-01-12T05:22:42.916Z,-4.97
2024-01-12T05:25:11.165Z,-4.95
2024-01-12T05:27:40.630Z,-4.92
2024-01-12T05:30:10.731Z,-4.98
2024-01-12T05:32:39.504Z,-4.96
2024-01-12T05:35:09.264Z,-4.92
2024-01-12T05:37:37.302Z,-4.85
2024-01-12T05:40:08.609Z,-5.38
2024-01-12T05:42:36.780Z,-5.31
2024-01-12T05:45:08.837Z,-5.42
2024-01-12T05:47:47.193Z,-5.42
2024-01-12T05:50:16.621Z,-5.35
2024-01-12T05:52:49.814Z,-5.44
2024-01-12T05:55:19.176Z,-5.43
2024-01-12T05:57:47.286Z,-5.38
2024-01-12T06:00:17.696Z,-5.44
2024-01-12T06:02:46.057Z,-5.51
2024-01-12T06:05:14.255Z,-5.54
2024-01-12T06:07:42.481Z,-5.52
2024-01-12T06:10:11.196Z,-5.57
2024-01-12T06:12:43.443Z,-5.30
2024-01-12T06:15:11.748Z,-5.45
2024-01-12T06:17:43.436Z,-5.60
2024-01-12T06:20:14.138Z,-5.49
2024-01-12T06:22:42.342Z,-5.53
2024-01-12T06:25:10.589Z,-5.58
2024-01-12T06:27:38.794Z,-5.72
2024-01-12T06:30:08.464Z,-5.73
2024-01-12T06:32:39.517Z,-5.76
2024-01-12T06:35:11.020Z,-5.73
2024-01-12T06:37:39.340Z,-5.89
2024-01-12T06:40:08.605Z,-5.82
2024-01-12T06:42:37.622Z,-5.80
2024-01-12T06:45:08.684Z,-5.92
2024-01-12T06:47:38.093Z,-5.90
2024-01-12T06:50:12.837Z,-5.96
2024-01-12T06:52:43.051Z,-6.01
2024-01-12T06:55:13.208Z,-6.00
2024-01-12T06:57:45.015Z,-5.92
2024-01-12T07:00:14.072Z,-5.90
2024-01-12T07:02:43.523Z,-5.87
2024-01-12T07:05:18.595Z,-5.77
2024-01-12T07:07:47.920Z,-5.76
2024-01-12T07:10:22.318Z,-5.74
2024-01-12T07:12:53.216Z,-5.57
2024-01-12T07:15:23.522Z,-5.48
2024-01-12T07:17:52.124Z,-5.42
2024-01-12T07:20:22.063Z,-5.31
2024-01-12T07:22:51.345Z,-5.14
2024-01-12T07:25:21.587Z,-5.04
2024-01-12T07:27:49.734Z,-4.91
2024-01-12T07:30:21.162Z,-4.83
2024-01-12T07:32:50.584Z,-4.70
2024-01-12T07:35:37.538Z,-4.55
2024-01-12T07:38:06.486Z,-4.46
2024-01-12T07:40:45.450Z,-4.32
2024-01-12T07:43:18.752Z,-4.25
2024-01-12T07:46:03.701Z,-4.13
2024-01-12T07:48:33.648Z,-3.88
2024-01-12T07:51:08.154Z,-3.62
2024-01-12T07:53:38.987Z,-3.61
2024-01-12T07:56:09.179Z,-3.42
2024-01-12T07:58:38.879Z,-3.33
2024-01-12T08:01:14.800Z,-3.23
2024-01-12T08:03:45.740Z,-3.14
2024-01-12T08:06:24.738Z,-3.01
2024-01-12T08:08:55.811Z,-2.90
2024-01-12T08:11:40.772Z,-2.84
2024-01-12T08:14:11.192Z,-2.77
2024-01-12T08:16:40.694Z,-2.69
2024-01-12T08:19:09.023Z,-2.60
2024-01-12T08:21:45.740Z,-2.54
2024-01-12T08:24:38.583Z,-2.46
2024-01-12T08:27:12.797Z,-2.49
2024-01-12T08:29:42.806Z,-2.39
2024-01-12T08:32:13.132Z,-2.36
2024-01-12T08:34:58.716Z,-2.29
2024-01-12T08:37:28.381Z,-1.97
2024-01-12T08:39:57.669Z,-2.04
2024-01-12T08:42:32.090Z,-1.94
2024-01-12T08:45:01.627Z,-1.86
2024-01-12T08:47:31.215Z,-1.77
2024-01-12T08:50:06.731Z,-1.81
2024-01-12T08:52:42.316Z,-1.65
2024-01-12T08:55:11.346Z,-1.70
2024-01-12T08:57:41.750Z,-1.80
2024-01-12T09:00:12.602Z,-1.84
2024-01-12T09:02:55.012Z,-1.95
2024-01-12T09:05:24.559Z,-1.96
2024-01-12T09:07:56.189Z,-1.99
2024-01-12T09:10:25.601Z,-1.91
2024-01-12T09:13:06.893Z,-1.89
2024-01-12T09:15:35.276Z,-1.87
2024-01-12T09:18:22.471Z,-1.77
2024-01-12T09:20:51.834Z,-1.70
2024-01-12T09:23:22.467Z,-1.70
2024-01-12T09:25:55.482Z,-1.63
2024-01-12T09:28:46.121Z,-1.63
2024-01-12T09:31:14.435Z,-1.49
2024-01-12T09:34:02.009Z,-1.43
2024-01-12T09:36:31.258Z,-1.33
2024-01-12T09:39:02.030Z,-1.30
2024-01-12T09:41:34.215Z,-1.20
2024-01-12T09:44:11.341Z,-1.13
2024-01-12T09:46:48.399Z,-1.15
2024-01-12T09:49:29.114Z,-1.05
2024-01-12T09:51:58.908Z,-0.95
2024-01-12T09:54:30.552Z,-0.99
2024-01-12T09:57:01.099Z,-0.93
2024-01-12T09:59:35.734Z,-0.81
2024-01-12T10:02:05.580Z,-0.62
2024-01-12T10:04:49.954Z,-0.71
2024-01-12T10:07:19.272Z,-0.68
2024-01-12T10:10:07.969Z,-0.62
2024-01-12T10:12:41.186Z,-0.79
2024-01-12T10:15:13.428Z,-0.65
2024-01-12T10:17:43.827Z,-0.65
2024-01-12T10:20:13.339Z,-0.66
2024-01-12T10:22:41.509Z,-0.52
2024-01-12T10:25:20.450Z,-0.60
2024-01-12T10:27:56.304Z,-0.65
2024-01-12T10:30:41.619Z,-0.55
2024-01-12T10:33:14.255Z,-0.62
2024-01-12T10:36:08.282Z,-0.61
2024-01-12T10:38:38.261Z,-0.61
2024-01-12T10:41:10.721Z,-0.51
2024-01-12T10:43:46.975Z,-0.55
2024-01-12T10:46:29.743Z,-0.51
2024-01-12T10:49:09.750Z,-0.51
2024-01-12T10:51:41.956Z,-0.48
2024-01-12T10:54:16.878Z,-0.48
2024-01-12T10:56:47.744Z,-0.43
2024-01-12T10:59:18.401Z,-0.31
2024-01-12T11:01:52.690Z,-0.35
2024-01-12T11:04:22.872Z,-0.47
2024-01-12T11:07:02.811Z,-0.40
2024-01-12T11:09:32.245Z,-0.40
2024-01-12T11:12:24.760Z,-0.36
2024-01-12T11:14:53.172Z,-0.39
2024-01-12T11:17:49.608Z,-0.32
2024-01-12T11:20:23.182Z,-0.37
2024-01-12T11:22:52.287Z,-0.29
2024-01-12T11:25:27.684Z,-0.22
2024-01-12T11:27:59.401Z,-0.16
2024-01-12T11:30:30.577Z,-0.13
2024-01-12T11:33:05.620Z,-0.04
2024-01-12T11:35:43.135Z,0.09
2024-01-12T11:38:11.983Z,0.19
2024-01-12T11:40:45.996Z,0.19
2024-01-12T11:43:19.103Z,0.27
2024-01-12T11:45:54.970Z,0.47
2024-01-12T11:48:25.350Z,0.59
2024-01-12T11:50:55.685Z,0.70
2024-01-12T11:53:34.030Z,0.78
2024-01-12T11:56:03.457Z,0.76
2024-01-12T11:58:37.780Z,0.82
2024-01-12T12:01:07.720Z,0.78
2024-01-12T12:03:36.968Z,0.84
2024-01-12T12:06:16.112Z,0.61
2024-01-12T12:08:45.519Z,0.55
2024-01-12T12:11:15.951Z,0.47
2024-01-12T12:13:52.261Z,0.48
2024-01-12T12:16:36.691Z,0.46
2024-01-12T12:19:06.452Z,0.41
2024-01-12T12:21:36.397Z,0.41
2024-01-12T12:24:08.903Z,0.43
2024-01-12T12:26:38.371Z,0.47
2024-01-12T12:29:08.273Z,0.69
2024-01-12T12:31:41.259Z,1.11
2024-01-12T12:34:11.584Z,1.26
2024-01-12T12:36:43.132Z,1.20
2024-01-12T12:39:11.535Z,1.46
2024-01-12T12:41:41.238Z,1.83
2024-01-12T12:44:19.614Z,1.67
2024-01-12T12:46:49.943Z,1.65
2024-01-12T12:49:19.245Z,1.75
2024-01-12T12:51:49.635Z,2.06
2024-01-12T12:54:18.459Z,1.81
2024-01-12T12:56:50.553Z,1.55
2024-01-12T12:59:36.885Z,1.28
2024-01-12T13:02:07.135Z,1.17
2024-01-12T13:04:44.556Z,1.27
2024-01-12T13:07:12.864Z,1.47
2024-01-12T13:09:45.152Z,1.23
2024-01-12T13:12:34.836Z,1.03
2024-01-12T13:15:07.798Z,1.36
2024-01-12T13:17:38.126Z,1.29
2024-01-12T13:20:09.481Z,1.75
2024-01-12T13:22:54.369Z,1.36
2024-01-12T13:25:51.924Z,1.63
2024-01-12T13:28:45.001Z,1.24
2024-01-12T13:31:16.729Z,0.78
2024-01-12T13:33:45.266Z,0.71
2024-01-12T13:36:15.017Z,0.63
2024-01-12T13:38:45.393Z,0.48
2024-01-12T13:41:15.682Z,0.47
2024-01-12T13:43:44.843Z,0.46
2024-01-12T13:46:18.793Z,0.43
2024-01-12T13:48:49.232Z,0.44
2024-01-12T13:52:09.826Z,0.35
2024-01-12T13:54:43.310Z,0.29
2024-01-12T13:57:16.978Z,0.28
2024-01-12T13:59:49.388Z,0.26
2024-01-12T14:02:25.451Z,0.25
2024-01-12T14:05:05.386Z,0.25
2024-01-12T14:07:49.393Z,0.28
2024-01-12T14:10:18.731Z,0.23
2024-01-12T14:12:49.150Z,0.23
2024-01-12T14:15:23.312Z,0.18
2024-01-12T14:17:57.136Z,0.15
2024-01-12T14:20:27.818Z,0.13
2024-01-12T14:23:03.068Z,0.10
2024-01-12T14:25:31.340Z,0.10
2024-01-12T14:28:23.141Z,0.07
2024-01-12T14:30:58.259Z,0.03
2024-01-12T14:33:31.390Z,0.02
2024-01-12T14:36:03.063Z,-0.03
2024-01-12T14:38:35.423Z,-0.07
2024-01-12T14:41:05.225Z,-0.10
2024-01-12T14:43:40.688Z,-0.13
2024-01-12T14:46:10.121Z,-0.15
2024-01-12T14:48:43.757Z,-0.19
2024-01-12T14:51:13.582Z,-0.21
2024-01-12T14:53:42.371Z,-0.26
2024-01-12T14:56:13.232Z,-0.34
2024-01-12T14:58:44.274Z,-0.44
2024-01-12T15:01:14.548Z,-0.52
2024-01-12T15:03:51.546Z,-0.55
2024-01-12T15:06:23.710Z,-0.62
2024-01-12T15:08:58.094Z,-0.71
2024-01-12T15:11:28.613Z,-0.73
2024-01-12T15:13:58.503Z,-0.79
2024-01-12T15:16:27.933Z,-0.85
2024-01-12T15:19:01.938Z,-0.87
2024-01-12T15:21:35.178Z,-0.83
2024-01-12T15:24:04.799Z,-0.95
2024-01-12T15:26:35.092Z,-0.96
2024-01-12T15:29:03.487Z,-0.98
2024-01-12T15:31:40.013Z,-1.10
2024-01-12T15:34:11.941Z,-1.08
2024-01-12T15:36:49.988Z,-1.08
2024-01-12T15:40:12.929Z,-1.20
2024-01-12T15:42:49.004Z,-1.24
2024-01-12T15:45:25.455Z,-1.31
2024-01-12T15:47:53.823Z,-1.30
2024-01-12T15:50:26.993Z,-1.29
2024-01-12T15:52:56.419Z,-1.22
2024-01-12T15:55:24.817Z,-1.30
2024-01-12T15:57:53.167Z,-1.38
2024-01-12T16:00:21.806Z,-1.33
2024-01-12T16:02:53.151Z,-1.39
2024-01-12T16:05:21.453Z,-1.49
2024-01-12T16:07:53.552Z,-0.81
2024-01-12T16:10:24.923Z,-1.02
2024-01-12T16:12:56.485Z,-1.46
2024-01-12T16:15:26.043Z,-1.60
2024-01-12T16:17:55.352Z,-1.62
2024-01-12T16:20:23.916Z,-1.65
2024-01-12T16:22:53.757Z,-1.63
2024-01-12T16:25:21.863Z,-1.62
2024-01-12T16:27:50.683Z,-1.65
2024-01-12T16:30:30.348Z,-1.69
2024-01-12T16:32:59.763Z,-1.84
2024-01-12T16:35:28.112Z,-1.85
2024-01-12T16:38:03.776Z,-1.91
2024-01-12T16:40:32.267Z,-1.89
2024-01-12T16:43:00.566Z,-1.87
2024-01-12T16:45:28.832Z,-1.92
2024-01-12T16:47:59.202Z,-1.87
2024-01-12T16:50:27.496Z,-1.96
2024-01-12T16:52:55.723Z,-2.04
2024-01-12T16:55:27.666Z,-1.97
2024-01-12T16:57:56.046Z,-2.04
2024-01-12T17:00:26.320Z,-1.97
2024-01-12T17:02:55.597Z,-1.96
2024-01-12T17:05:24.259Z,-1.84
2024-01-12T17:07:52.432Z,-1.87
2024-01-12T17:10:20.582Z,-1.94
2024-01-12T17:12:50.177Z,-1.95
2024-01-12T17:15:18.685Z,-2.12
2024-01-12T17:17:49.969Z,-2.01
2024-01-12T17:20:18.790Z,-2.05
2024-01-12T17:22:47.098Z,-1.97
2024-01-12T17:25:15.924Z,-1.79
2024-01-12T17:27:44.478Z,-1.86
2024-01-12T17:30:26.860Z,-1.91
2024-01-12T17:33:07.623Z,-1.90
2024-01-12T17:35:39.371Z,-1.97
2024-01-12T17:38:12.579Z,-2.09
2024-01-12T17:40:40.761Z,-2.07
2024-01-12T17:43:11.867Z,-2.13
2024-01-12T17:45:43.435Z,-2.13
2024-01-12T17:48:13.843Z,-2.20
2024-01-12T17:50:43.317Z,-2.19
2024-01-12T17:53:19.104Z,-2.04
2024-01-12T17:55:50.171Z,-2.05
2024-01-12T17:58:22.571Z,-2.18
2024-01-12T18:00:53.240Z,-2.13
2024-01-12T18:03:22.714Z,-2.31
2024-01-12T18:06:04.432Z,-2.15
2024-01-12T18:08:33.840Z,-2.17
2024-01-12T18:11:03.324Z,-2.02
2024-01-12T18:13:37.055Z,-1.96
2024-01-12T18:16:16.626Z,-2.07
2024-01-12T18:18:46.031Z,-2.14
2024-01-12T18:21:19.542Z,-2.25
2024-01-12T18:23:49.192Z,-2.25
2024-01-12T18:26:18.869Z,-2.23
2024-01-12T18:28:48.357Z,-2.23
2024-01-12T18:31:33.447Z,-2.27
2024-01-12T18:34:07.479Z,-2.33
2024-01-12T18:36:37.246Z,-2.34
2024-01-12T18:39:20.864Z,-2.36
2024-01-12T18:41:53.195Z,-2.32
2024-01-12T18:44:33.967Z,-2.32
2024-01-12T18:47:04.710Z,-2.39
2024-01-12T18:49:44.337Z,-2.46
2024-01-12T18:52:13.590Z,-2.47
2024-01-12T18:54:51.750Z,-2.42
2024-01-12T18:57:22.617Z,-2.46
2024-01-12T18:59:54.133Z,-2.46
2024-01-12T19:02:24.926Z,-2.41
2024-01-12T19:04:53.464Z,-2.45
2024-01-12T19:07:22.634Z,-2.49
2024-01-12T19:09:51.876Z,-2.38
2024-01-12T19:12:21.542Z,-2.37
2024-01-12T19:14:50.960Z,-2.57
2024-01-12T19:17:19.285Z,-2.57
2024-01-12T19:19:48.884Z,-2.63
2024-01-12T19:22:17.316Z,-2.55
2024-01-12T19:24:46.462Z,-2.49
2024-01-12T19:27:15.859Z,-2.57
2024-01-12T19:29:47.919Z,-2.73
2024-01-12T19:32:16.129Z,-2.65
2024-01-12T19:34:46.931Z,-2.79
2024-01-12T19:37:19.858Z,-2.56
2024-01-12T19:39:48.167Z,-2.79
2024-01-12T19:42:28.525Z,-2.76
2024-01-12T19:44:58.835Z,-2.77
2024-01-12T19:47:27.573Z,-2.70
2024-01-12T19:49:56.072Z,-2.61
2024-01-12T19:52:26.020Z,-2.62
2024-01-12T19:54:54.353Z,-2.77
2024-01-12T19:57:21.897Z,-2.75
2024-01-12T19:59:50.353Z,-2.87
2024-01-12T20:02:20.837Z,-2.84
2024-01-12T20:04:51.473Z,-2.91
2024-01-12T20:07:20.992Z,-2.79
2024-01-12T20:09:53.917Z,-2.74
2024-01-12T20:12:24.066Z,-2.75
2024-01-12T20:15:13.189Z,-2.70
2024-01-12T20:17:44.108Z,-2.73
2024-01-12T20:20:13.944Z,-2.79
2024-01-12T20:22:43.391Z,-2.93
2024-01-12T20:25:14.902Z,-2.78
2024-01-12T20:27:43.303Z,-2.71
2024-01-12T20:30:16.818Z,-2.65
2024-01-12T20:32:47.654Z,-2.71
2024-01-12T20:35:16.395Z,-2.70
2024-01-12T20:37:50.748Z,-2.74
2024-01-12T20:40:20.619Z,-2.79
2024-01-12T20:43:14.892Z,-2.67
2024-01-12T20:45:44.754Z,-2.72
2024-01-12T20:48:29.850Z,-2.73
2024-01-12T20:51:01.735Z,-2.79
2024-01-12T20:53:30.814Z,-2.76
2024-01-12T20:56:00.712Z,-2.51
2024-01-12T20:58:29.158Z,-2.47
2024-01-12T21:00:59.387Z,-2.57
2024-01-12T21:03:30.932Z,-2.59
2024-01-12T21:06:01.501Z,-2.65
2024-01-12T21:08:29.980Z,-2.75
2024-01-12T21:11:03.807Z,-2.87
2024-01-12T21:13:32.174Z,-2.69
2024-01-12T21:16:03.171Z,-2.78
2024-01-12T21:18:31.667Z,-2.88
2024-01-12T21:21:05.249Z,-2.82
2024-01-12T21:23:48.156Z,-2.80
2024-01-12T21:26:18.957Z,-2.80
2024-01-12T21:28:52.553Z,-2.85
2024-01-12T21:31:22.088Z,-2.83
2024-01-12T21:33:58.584Z,-2.63
2024-01-12T21:36:31.152Z,-2.59
2024-01-12T21:39:13.386Z,-2.55
2024-01-12T21:41:44.307Z,-2.65
2024-01-12T21:44:12.672Z,-2.61
2024-01-12T21:46:43.188Z,-2.79
2024-01-12T21:49:11.963Z,-2.62
2024-01-12T21:51:41.614Z,-2.73
2024-01-12T21:54:20.253Z,-2.71
2024-01-12T21:56:51.333Z,-2.70
2024-01-12T21:59:20.737Z,-2.65
2024-01-12T22:01:55.111Z,-2.71
2024-01-12T22:04:23.456Z,-2.75
2024-01-12T22:06:51.917Z,-2.64
2024-01-12T22:09:24.995Z,-2.63
2024-01-12T22:12:04.988Z,-2.69
2024-01-12T22:14:34.305Z,-2.59
2024-01-12T22:17:05.659Z,-2.64
2024-01-12T22:19:36.074Z,-2.59
2024-01-12T22:22:06.370Z,-2.54
2024-01-12T22:24:37.016Z,-2.70
2024-01-12T22:27:16.925Z,-2.59
2024-01-12T22:29:45.251Z,-2.62
2024-01-12T22:32:29.657Z,-2.53
2024-01-12T22:35:00.576Z,-2.51
2024-01-12T22:37:30.258Z,-2.53
2024-01-12T22:40:05.440Z,-2.49
2024-01-12T22:42:37.869Z,-2.41
2024-01-12T22:45:10.379Z,-2.54
2024-01-12T22:47:41.737Z,-2.55
2024-01-12T22:50:12.386Z,-2.50
2024-01-12T22:52:41.285Z,-2.48
2024-01-12T22:55:10.766Z,-2.49
2024-01-12T22:58:11.947Z,-2.49
2024-01-12T23:00:42.370Z,-2.52
2024-01-12T23:03:12.277Z,-2.62
2024-01-12T23:05:41.973Z,-2.67
2024-01-12T23:08:16.644Z,-2.52
2024-01-12T23:10:45.381Z,-2.60
2024-01-12T23:13:15.202Z,-2.56
2024-01-12T23:15:43.619Z,-2.64
2024-01-12T23:18:11.942Z,-2.53
2024-01-12T23:20:40.194Z,-2.59
2024-01-12T23:23:08.628Z,-2.61
2024-01-12T23:25:37.528Z,-2.52
2024-01-12T23:28:05.944Z,-2.50
2024-01-12T23:30:40.424Z,-2.53
2024-01-12T23:33:08.843Z,-2.60
2024-01-12T23:35:37.278Z,-2.48
2024-01-12T23:38:05.912Z,-2.47
2024-01-12T23:40:34.060Z,-2.56
2024-01-12T23:43:03.141Z,-2.54
2024-01-12T23:45:31.321Z,-2.54
2024-01-12T23:48:04.939Z,-2.58
2024-01-12T23:50:37.925Z,-2.59
2024-01-12T23:53:08.469Z,-2.64
2024-01-12T23:55:39.819Z,-2.59
2024-01-12T23:58:09.982Z,-2.62
